Time;durP1;ratioP1;P1;durP2;ratioP2;P2;SDS_P1;SDS_P2;PMS_P1;PMS_P2;Temp;Humidity;BMP_temperature;BMP_pressure;BME280_temperature;BME280_humidity;BME280_pressure;Samples;Min_cycle;Max_cycle;Signal;HPM_P1;HPM_P2
2022/06/08 00:00:39;;;;;;;7.45;3.03;;;;;;;15.64;68.70;98973.97;4958617;28;20031;-92
2022/06/08 00:03:11;;;;;;;5.63;3.65;;;;;;;15.46;69.22;98954.06;4958130;28;20046;-93
2022/06/08 00:05:36;;;;;;;5.57;3.58;;;;;;;15.50;69.27;98961.31;4958043;28;20026;-92
2022/06/08 00:08:03;;;;;;;6.95;3.30;;;;;;;15.36;69.63;98950.53;4958643;28;20047;-92
2022/06/08 00:10:29;;;;;;;5.45;3.40;;;;;;;15.52;68.74;98944.69;4958348;28;20399;-92
2022/06/08 00:12:54;;;;;;;6.97;3.40;;;;;;;15.63;68.42;98939.81;4957572;28;20034;-92
2022/06/08 00:15:20;;;;;;;5.78;4.03;;;;;;;15.69;68.93;98966.50;4956977;28;20027;-93
2022/06/08 00:17:46;;;;;;;6.53;3.50;;;;;;;15.70;69.20;98968.09;4941842;28;20018;-92
2022/06/08 00:20:11;;;;;;;6.18;3.63;;;;;;;15.65;69.16;98970.97;4957700;28;20026;-94
2022/06/08 00:22:37;;;;;;;5.65;3.70;;;;;;;15.70;69.31;98970.00;4958034;28;20053;-92
2022/06/08 00:25:04;;;;;;;6.40;3.50;;;;;;;15.58;69.28;98962.44;4957413;28;20058;-92
2022/06/08 00:27:29;;;;;;;8.57;3.58;;;;;;;15.55;69.21;98957.66;4958083;28;20046;-93
2022/06/08 00:29:55;;;;;;;3.88;3.40;;;;;;;15.58;69.25;98967.88;4957459;28;20408;-94
2022/06/08 00:32:20;;;;;;;5.20;3.70;;;;;;;15.57;69.11;98966.28;4957694;28;20477;-93
2022/06/08 00:34:46;;;;;;;4.45;3.70;;;;;;;15.39;69.67;98959.94;4957676;28;20023;-93
2022/06/08 00:37:11;;;;;;;4.60;3.58;;;;;;;15.42;69.82;98964.78;4957472;28;20086;-93
2022/06/08 00:39:37;;;;;;;4.97;3.47;;;;;;;15.52;69.72;98983.50;4957711;28;20089;-93
2022/06/08 00:42:07;;;;;;;6.40;4.03;;;;;;;15.54;69.40;98973.16;4957341;28;20062;-93
2022/06/08 00:45:09;;;;;;;6.15;3.88;;;;;;;15.67;69.03;98976.88;4958716;28;20566;-93
2022/06/08 00:47:54;;;;;;;7.25;4.05;;;;;;;15.58;68.92;98976.00;4950879;28;20042;-93
2022/06/08 00:50:24;;;;;;;8.90;3.60;;;;;;;15.49;69.26;98967.81;4958129;28;20496;-94
2022/06/08 00:52:51;;;;;;;4.05;3.22;;;;;;;15.46;69.26;98960.31;4957924;28;20031;-92
2022/06/08 00:55:18;;;;;;;6.50;3.63;;;;;;;15.49;69.00;98959.69;4957369;28;20113;-93
2022/06/08 00:57:53;;;;;;;5.93;3.50;;;;;;;15.48;69.29;98973.56;4941528;28;20026;-92
2022/06/08 01:00:29;;;;;;;7.57;3.80;;;;;;;15.32;69.54;98952.25;4941974;28;20125;-93
2022/06/08 01:02:55;;;;;;;5.60;3.58;;;;;;;15.38;69.61;98961.06;4957641;28;20030;-92
2022/06/08 01:05:35;;;;;;;8.88;3.88;;;;;;;15.56;68.62;98956.53;4941010;28;20029;-93
2022/06/08 01:08:28;;;;;;;6.13;3.83;;;;;;;15.45;68.81;98941.63;4959258;28;20102;-93
2022/06/08 01:10:55;;;;;;;7.82;4.00;;;;;;;15.47;68.63;98923.13;4958738;28;20507;-93
2022/06/08 01:13:21;;;;;;;6.07;3.80;;;;;;;15.49;68.94;98923.63;4941839;28;20023;-93
2022/06/08 01:15:46;;;;;;;6.97;3.38;;;;;;;15.47;69.15;98932.06;4957571;28;20042;-92
2022/06/08 01:18:12;;;;;;;5.90;3.58;;;;;;;15.51;68.73;98932.25;4941602;28;20058;-93
2022/06/08 01:20:49;;;;;;;5.22;3.38;;;;;;;15.38;69.08;98916.84;4956918;28;20054;-91
2022/06/08 01:23:15;;;;;;;5.78;3.53;;;;;;;15.49;69.00;98926.34;4957130;28;20035;-93
2022/06/08 01:26:04;;;;;;;4.85;3.50;;;;;;;15.49;68.77;98924.41;4957451;28;20050;-92
2022/06/08 01:29:07;;;;;;;4.45;3.47;;;;;;;15.38;69.00;98927.69;4977596;28;20423;-92
2022/06/08 01:31:51;;;;;;;;;;;;;;;15.50;68.88;98953.16;4977307;28;20055;-92
2022/06/08 01:34:39;;;;;;;4.60;3.30;;;;;;;15.53;68.64;98933.53;4993080;28;20268;-94
2022/06/08 01:37:24;;;;;;;4.10;3.28;;;;;;;15.52;68.52;98917.56;4976665;28;20043;-94
2022/06/08 01:39:53;;;;;;;5.47;3.20;;;;;;;15.56;68.71;98938.34;4961788;28;20177;-92
2022/06/08 01:42:22;;;;;;;4.80;3.45;;;;;;;15.54;68.87;98939.75;4977252;28;20482;-93
2022/06/08 01:47:47;;;;;;;4.95;3.55;;;;;;;15.64;68.04;98934.06;4977083;28;20424;-93
2022/06/08 01:50:18;;;;;;;5.03;3.38;;;;;;;15.50;67.99;98896.19;4976790;28;20027;-93
2022/06/08 01:53:01;;;;;;;12.52;3.80;;;;;;;15.57;67.97;98910.09;4945518;28;20035;-93
2022/06/08 01:55:31;;;;;;;4.40;3.60;;;;;;;15.60;67.84;98916.00;4961343;28;20035;-93
2022/06/08 01:58:03;;;;;;;5.47;3.75;;;;;;;15.57;68.79;98926.38;4960974;28;20027;-91
2022/06/08 02:00:34;;;;;;;5.35;3.67;;;;;;;15.28;69.18;98910.59;4976660;28;20023;-93
2022/06/08 02:03:26;;;;;;;5.90;3.90;;;;;;;15.33;69.74;98937.56;4946100;28;20039;-92
2022/06/08 02:06:07;;;;;;;7.30;3.88;;;;;;;15.34;69.70;98941.91;4976344;28;20031;-93
2022/06/08 02:08:42;;;;;;;5.88;3.78;;;;;;;15.13;69.81;98919.91;4977020;28;20050;-94
2022/06/08 02:11:10;;;;;;;7.65;3.55;;;;;;;15.23;70.01;98946.00;4960311;28;20030;-93
2022/06/08 02:13:40;;;;;;;6.28;4.10;;;;;;;15.16;68.90;98910.34;4976670;28;20050;-94
2022/06/08 02:16:12;;;;;;;9.93;5.20;;;;;;;15.40;68.16;98930.91;4960497;28;20101;-93
2022/06/08 02:18:42;;;;;;;8.07;4.45;;;;;;;15.30;67.82;98926.56;4944968;28;20038;-93
2022/06/08 02:21:19;;;;;;;6.10;3.88;;;;;;;15.25;67.73;98913.94;4960710;28;20062;-93
2022/06/08 02:23:56;;;;;;;8.55;4.00;;;;;;;15.22;67.97;98911.03;4959904;28;20037;-94
2022/06/08 02:26:26;;;;;;;5.22;4.07;;;;;;;15.34;68.35;98922.13;4961358;28;20416;-93
2022/06/08 02:29:04;;;;;;;4.47;3.90;;;;;;;15.24;67.85;98911.53;4960425;28;20039;-92
2022/06/08 02:31:58;;;;;;;7.15;4.07;;;;;;;15.11;68.86;98927.56;4959996;28;20515;-93
2022/06/08 02:34:37;;;;;;;7.65;4.15;;;;;;;15.10;69.63;98946.84;4962473;28;20023;-93
2022/06/08 02:37:12;;;;;;;5.88;4.20;;;;;;;15.04;69.87;98940.75;4958853;28;20074;-93
2022/06/08 02:39:50;;;;;;;6.07;4.10;;;;;;;14.91;70.65;98944.31;4960439;28;20101;-94
2022/06/08 02:42:23;;;;;;;12.63;4.53;;;;;;;14.80;70.11;98918.59;4960318;28;20122;-95
2022/06/08 02:44:51;;;;;;;15.25;4.47;;;;;;;14.83;70.50;98945.84;4960264;28;20037;-93
2022/06/08 02:47:31;;;;;;;7.78;4.10;;;;;;;14.82;70.53;98941.56;4959483;28;20090;-93
2022/06/08 02:50:01;;;;;;;7.45;3.85;;;;;;;14.82;70.81;98957.81;4961701;28;20038;-93
2022/06/08 02:52:27;;;;;;;7.45;3.95;;;;;;;14.70;70.97;98963.75;4959923;28;20097;-95
2022/06/08 02:54:52;;;;;;;12.30;4.00;;;;;;;14.78;70.59;98964.16;4943263;28;20031;-93
2022/06/08 02:57:37;;;;;;;7.07;3.75;;;;;;;14.79;70.73;98974.69;4959543;28;20097;-92
2022/06/08 03:00:06;;;;;;;6.30;3.60;;;;;;;14.75;70.41;98969.09;4975765;28;20454;-92
2022/06/08 03:02:41;;;;;;;7.20;3.80;;;;;;;14.72;71.05;98979.72;4975664;28;20407;-93
2022/06/08 03:05:28;;;;;;;6.95;3.67;;;;;;;14.64;70.90;98970.41;4975316;28;20058;-94
2022/06/08 03:07:59;;;;;;;6.13;3.60;;;;;;;14.58;71.27;98977.03;4961864;28;20027;-93
2022/06/08 03:10:25;;;;;;;6.38;3.70;;;;;;;14.49;71.29;98965.31;4975643;28;20086;-92
2022/06/08 03:12:54;;;;;;;4.70;3.67;;;;;;;14.55;70.73;98959.50;4959330;28;20030;-93
2022/06/08 03:15:22;;;;;;;6.93;3.67;;;;;;;14.51;71.18;98966.59;4959429;28;20030;-92
2022/06/08 03:17:49;;;;;;;5.75;3.75;;;;;;;14.42;71.92;98965.72;4943085;28;20034;-94
2022/06/08 03:20:15;;;;;;;6.13;3.72;;;;;;;14.52;71.49;98970.09;4959687;28;20022;-94
2022/06/08 03:22:40;;;;;;;4.63;3.53;;;;;;;14.72;71.17;98979.72;4958911;28;20025;-94
2022/06/08 03:25:06;;;;;;;6.57;4.55;;;;;;;14.71;71.16;98986.25;4959103;28;20415;-92
2022/06/08 03:27:32;;;;;;;4.63;3.92;;;;;;;14.70;70.69;98979.22;4942842;28;20034;-94
2022/06/08 03:29:57;;;;;;;4.82;3.40;;;;;;;14.71;70.54;98973.50;4959186;28;20027;-94
2022/06/08 03:32:23;;;;;;;9.80;4.97;;;;;;;14.64;70.79;98981.25;4959926;28;20019;-92
2022/06/08 03:34:50;;;;;;;22.65;15.95;;;;;;;14.40;71.62;98972.53;4958708;28;20124;-91
2022/06/08 03:37:16;;;;;;;8.75;4.47;;;;;;;14.39;72.29;98971.72;4942534;28;20027;-93
2022/06/08 03:39:41;;;;;;;7.20;3.75;;;;;;;14.32;72.15;98968.66;4958572;28;20123;-91
2022/06/08 03:42:19;;;;;;;6.97;3.95;;;;;;;14.30;71.89;98963.53;4960326;28;20081;-96
2022/06/08 03:44:54;;;;;;;4.88;3.42;;;;;;;14.60;71.25;98961.28;4960484;28;20034;-96
2022/06/08 03:47:22;;;;;;;6.38;3.65;;;;;;;14.58;70.97;98960.00;4946337;28;20022;-95
2022/06/08 03:49:48;;;;;;;6.47;3.28;;;;;;;14.62;70.59;98971.81;4958576;28;20019;-93
2022/06/08 03:52:18;;;;;;;6.18;3.63;;;;;;;14.69;70.57;98962.19;4958744;28;20113;-92
2022/06/08 03:54:46;;;;;;;7.82;3.50;;;;;;;14.77;70.90;98970.69;4958706;28;20022;-93
2022/06/08 03:57:11;;;;;;;8.95;3.85;;;;;;;14.83;71.39;98977.59;4954067;28;20038;-93
2022/06/08 03:59:40;;;;;;;6.85;3.58;;;;;;;15.03;70.47;98976.31;4923073;29;20031;-92
2022/06/08 04:02:06;;;;;;;6.75;3.58;;;;;;;15.20;69.39;98967.50;4940643;29;20031;-93
2022/06/08 04:04:33;;;;;;;5.40;3.92;;;;;;;15.32;68.65;98968.53;4923822;29;20027;-94
2022/06/08 04:06:58;;;;;;;6.65;3.70;;;;;;;15.50;68.77;98985.72;4925467;29;20055;-91
2022/06/08 04:09:24;;;;;;;6.38;3.17;;;;;;;15.56;68.07;98979.06;4938786;29;20034;-92
2022/06/08 04:11:50;;;;;;;4.00;3.15;;;;;;;15.88;67.34;98982.59;4922555;28;20023;-91
2022/06/08 04:14:16;;;;;;;7.38;3.75;;;;;;;16.05;66.70;98978.34;4942132;28;20023;-93
2022/06/08 04:16:41;;;;;;;7.90;3.90;;;;;;;16.09;66.64;98977.38;4942855;28;20400;-92
2022/06/08 04:19:06;;;;;;;7.43;3.40;;;;;;;16.28;65.77;98982.53;4942653;28;20085;-92
2022/06/08 04:21:32;;;;;;;8.95;3.70;;;;;;;16.21;66.28;98968.66;4941978;28;20034;-93
2022/06/08 04:24:00;;;;;;;5.70;3.95;;;;;;;16.46;65.71;98969.81;4942468;28;20026;-91
2022/06/08 04:26:25;;;;;;;13.18;4.35;;;;;;;16.51;65.49;98977.00;4941876;28;20150;-90
2022/06/08 04:28:51;;;;;;;7.13;3.58;;;;;;;16.54;65.10;98982.63;4941998;28;20507;-90
2022/06/08 04:31:17;;;;;;;6.60;3.13;;;;;;;16.69;64.41;98984.06;4922932;29;20094;-90
2022/06/08 04:33:42;;;;;;;7.75;3.53;;;;;;;16.72;64.44;98991.56;4923895;29;20393;-90
2022/06/08 04:36:09;;;;;;;5.97;3.90;;;;;;;16.79;63.69;98988.41;4932015;28;20134;-90
2022/06/08 04:38:34;;;;;;;4.88;3.30;;;;;;;17.06;63.26;99009.06;4973251;28;20026;-90
2022/06/08 04:41:01;;;;;;;8.68;4.68;;;;;;;16.90;64.16;98986.19;4942992;28;20030;-90
2022/06/08 04:43:26;;;;;;;10.23;3.63;;;;;;;17.13;63.60;99014.81;4943107;28;20085;-90
2022/06/08 04:45:51;;;;;;;11.85;3.25;;;;;;;17.18;62.49;98997.53;4942982;28;20054;-91
2022/06/08 04:48:17;;;;;;;6.45;3.20;;;;;;;17.25;62.18;98989.69;4942642;28;20027;-89
2022/06/08 04:51:37;;;;;;;10.32;3.17;;;;;;;17.39;62.65;99011.28;4942996;28;20038;-90
2022/06/08 04:54:02;;;;;;;9.13;3.58;;;;;;;17.13;63.47;98994.97;4971056;28;20031;-91
2022/06/08 04:56:28;;;;;;;9.32;3.63;;;;;;;17.20;63.13;98989.03;4953580;28;20070;-91
2022/06/08 04:58:54;;;;;;;14.07;4.25;;;;;;;17.18;64.03;98994.81;4957886;28;20033;-90
2022/06/08 05:01:20;;;;;;;10.32;4.00;;;;;;;17.32;63.51;98992.72;4959144;28;20491;-92
2022/06/08 05:03:46;;;;;;;5.45;3.60;;;;;;;17.36;63.13;98993.66;4958615;28;20085;-91
2022/06/08 05:06:11;;;;;;;6.60;3.85;;;;;;;17.25;63.61;98986.97;4958722;28;20038;-94
2022/06/08 05:08:40;;;;;;;6.13;3.50;;;;;;;17.36;63.53;98996.38;4951483;28;20031;-91
2022/06/08 05:11:06;;;;;;;8.23;3.90;;;;;;;17.49;62.86;99000.06;4942757;28;20033;-93
2022/06/08 05:13:32;;;;;;;5.55;3.20;;;;;;;17.45;62.55;98973.78;4956589;28;20026;-91
2022/06/08 05:15:58;;;;;;;4.90;3.63;;;;;;;17.65;62.47;98999.53;4959233;28;20085;-92
2022/06/08 05:18:24;;;;;;;9.98;3.38;;;;;;;17.73;62.56;98990.53;4952190;28;20019;-92
2022/06/08 05:20:49;;;;;;;12.30;3.88;;;;;;;17.68;62.46;98977.91;4959299;28;20035;-90
2022/06/08 05:23:17;;;;;;;13.57;4.03;;;;;;;17.81;61.99;98984.28;4958915;28;20496;-90
2022/06/08 05:25:43;;;;;;;11.13;4.20;;;;;;;18.00;62.67;99002.19;4959521;28;20051;-90
2022/06/08 05:28:09;;;;;;;7.13;3.33;;;;;;;18.23;62.06;99011.69;4946374;28;20035;-89
2022/06/08 05:30:34;;;;;;;11.20;5.00;;;;;;;18.29;61.82;99006.84;4962564;28;20031;-91
2022/06/08 05:33:03;;;;;;;6.78;3.88;;;;;;;18.42;60.46;99005.81;4959080;28;20037;-91
2022/06/08 05:35:29;;;;;;;5.68;3.85;;;;;;;18.46;59.91;98974.03;4935937;29;20027;-91
2022/06/08 05:37:54;;;;;;;11.05;4.85;;;;;;;18.47;61.04;98983.00;4940059;29;20023;-94
2022/06/08 05:40:21;;;;;;;13.68;12.18;;;;;;;18.63;60.96;99018.69;4939306;29;20409;-90
2022/06/08 05:42:46;;;;;;;13.50;7.30;;;;;;;18.68;60.98;98994.75;4923098;29;20023;-92
2022/06/08 05:45:16;;;;;;;7.65;3.90;;;;;;;18.80;60.39;98991.31;4939703;29;20374;-90
2022/06/08 05:47:43;;;;;;;10.32;4.22;;;;;;;18.93;60.89;98984.78;4961417;28;20023;-91
2022/06/08 05:50:08;;;;;;;111.10;68.97;;;;;;;19.13;60.29;98999.56;4959581;28;20031;-90
2022/06/08 05:55:56;;;;;;;11.93;4.53;;;;;;;19.22;59.90;98983.09;4979550;28;20165;-94
2022/06/08 05:58:22;;;;;;;8.00;4.70;;;;;;;19.29;60.12;98980.63;4961431;28;20517;-93
2022/06/08 06:00:47;;;;;;;78.43;8.95;;;;;;;19.39;60.06;98982.91;4962070;28;20027;-94
2022/06/08 06:03:44;;;;;;;8.02;3.55;;;;;;;19.63;59.57;98994.25;4948638;28;20038;-93
2022/06/08 06:06:12;;;;;;;7.78;4.13;;;;;;;19.68;58.85;98986.63;4962280;28;20035;-93
2022/06/08 06:08:38;;;;;;;10.23;3.90;;;;;;;19.93;58.76;99009.34;4944783;28;20033;-93
2022/06/08 06:11:06;;;;;;;7.45;3.60;;;;;;;19.89;58.64;98994.00;4941094;28;20422;-94
2022/06/08 06:13:32;;;;;;;9.35;4.40;;;;;;;20.03;58.79;98985.47;4960441;28;20030;-95
2022/06/08 06:16:01;;;;;;;8.73;4.25;;;;;;;20.24;57.68;98986.16;4962609;28;20417;-95
2022/06/08 06:18:29;;;;;;;5.30;3.75;;;;;;;20.37;56.83;98974.03;4942714;28;20026;-91
2022/06/08 06:21:16;;;;;;;6.25;4.30;;;;;;;20.34;57.22;98955.59;4927527;29;20071;-95
2022/06/08 06:23:42;;;;;;;7.70;4.07;;;;;;;20.61;57.36;98963.44;4926611;29;20043;-92
2022/06/08 06:26:10;;;;;;;13.98;5.00;;;;;;;20.49;57.07;98937.69;4910028;29;20166;-93
2022/06/08 06:38:52;;;;;;;8.73;5.60;;;;;;;21.03;56.31;98988.53;4832922;29;20171;-94
2022/06/08 06:54:36;;;;;;;11.93;4.70;;;;;;;21.32;56.10;98957.25;4818434;29;20122;-93
2022/06/08 06:57:12;;;;;;;13.63;4.03;;;;;;;21.40;55.12;98942.59;4857348;29;20026;-96
2022/06/08 06:59:50;;;;;;;13.35;5.65;;;;;;;21.30;56.19;98943.13;4834091;29;20516;-94
2022/06/08 07:02:56;;;;;;;24.73;7.32;;;;;;;21.61;55.39;98968.19;4844573;29;20041;-93
2022/06/08 07:05:23;;;;;;;7.30;4.07;;;;;;;21.67;54.81;98962.09;4866449;29;20040;-91
2022/06/08 07:11:33;;;;;;;14.98;4.53;;;;;;;22.03;53.81;98949.25;4899969;29;20025;-94
2022/06/08 07:14:02;;;;;;;6.35;4.00;;;;;;;22.24;54.24;98961.91;4900480;29;20559;-94
2022/06/08 07:16:34;;;;;;;8.10;5.32;;;;;;;22.37;53.79;98952.41;4886912;29;20043;-96
2022/06/08 07:19:02;;;;;;;6.13;5.15;;;;;;;22.28;53.78;98935.38;4886605;29;20518;-93
2022/06/08 07:21:48;;;;;;;9.52;5.45;;;;;;;22.32;54.30;98955.44;4891088;29;20064;-94
2022/06/08 07:24:46;;;;;;;35.85;27.75;;;;;;;22.23;53.75;98921.91;4923547;29;20039;-96
2022/06/08 07:27:43;;;;;;;8.52;4.93;;;;;;;22.38;53.61;98926.59;4925542;29;20071;-93
2022/06/08 07:30:36;;;;;;;13.27;6.00;;;;;;;22.65;53.59;98949.50;4961258;28;20043;-96
2022/06/08 07:33:05;;;;;;;11.50;5.03;;;;;;;22.58;52.90;98933.69;4950633;28;20464;-94
2022/06/08 07:35:31;;;;;;;12.57;5.30;;;;;;;22.67;53.43;98925.25;4979532;28;20050;-96
2022/06/08 07:37:56;;;;;;;13.82;5.45;;;;;;;22.66;54.00;98918.19;4964317;28;20038;-96
2022/06/08 07:40:24;;;;;;;10.93;6.60;;;;;;;22.85;53.21;98933.03;4960362;28;20039;-93
2022/06/08 07:42:50;;;;;;;12.27;5.68;;;;;;;22.85;52.94;98914.63;4961510;28;20113;-94
2022/06/08 07:45:18;;;;;;;9.10;5.20;;;;;;;22.87;52.75;98909.59;4961598;28;20081;-93
2022/06/08 07:50:33;;;;;;;17.83;11.43;;;;;;;23.00;52.38;98907.47;4966045;28;20038;-95
2022/06/08 07:53:07;;;;;;;11.13;5.28;;;;;;;22.96;52.22;98925.81;4963127;28;20035;-96
2022/06/08 07:55:44;;;;;;;8.85;4.72;;;;;;;23.01;51.63;98906.31;4966955;28;20425;-95
2022/06/08 07:58:10;;;;;;;10.95;3.67;;;;;;;23.09;50.57;98904.50;4947133;28;20026;-95
2022/06/08 08:00:43;;;;;;;12.20;5.20;;;;;;;23.20;49.93;98905.50;4945617;28;20102;-95
2022/06/08 08:03:09;;;;;;;5.13;3.30;;;;;;;23.48;49.00;98918.19;4947112;28;20134;-95
2022/06/08 08:05:35;;;;;;;9.88;3.65;;;;;;;23.61;48.52;98897.56;4961883;28;20042;-94
2022/06/08 08:08:00;;;;;;;9.85;5.07;;;;;;;23.77;47.74;98892.78;4976322;28;20476;-94
2022/06/08 08:10:55;;;;;;;9.57;4.93;;;;;;;24.18;47.24;98928.75;4962889;28;20030;-94
2022/06/08 08:13:27;;;;;;;8.60;4.35;;;;;;;24.24;46.63;98912.72;4964642;28;20042;-96
2022/06/08 08:15:52;;;;;;;8.10;3.22;;;;;;;24.43;45.59;98906.31;4982058;28;20018;-94
2022/06/08 08:18:28;;;;;;;20.60;11.25;;;;;;;24.62;45.47;98927.41;4962234;28;20026;-94
2022/06/08 08:24:05;;;;;;;5.35;3.30;;;;;;;24.25;46.39;98917.06;4963237;28;20121;-94
2022/06/08 08:26:30;;;;;;;4.72;3.03;;;;;;;24.33;45.69;98915.19;4962849;28;20055;-95
2022/06/08 08:28:59;;;;;;;7.53;2.75;;;;;;;24.21;45.74;98897.72;4962138;28;20054;-92
2022/06/08 08:31:25;;;;;;;8.10;3.45;;;;;;;24.32;45.59;98906.16;4961982;28;20066;-94
2022/06/08 08:33:51;;;;;;;4.85;3.35;;;;;;;24.47;45.28;98917.38;4961506;28;20077;-93
2022/06/08 08:36:22;;;;;;;3.45;2.72;;;;;;;24.34;45.20;98903.00;4959843;28;20027;-95
2022/06/08 08:38:48;;;;;;;9.07;3.38;;;;;;;24.31;45.48;98914.78;4962588;28;20011;-92
2022/06/08 08:44:38;;;;;;;4.72;2.90;;;;;;;24.18;43.60;98897.72;4960017;29;20039;-95
2022/06/08 08:47:31;;;;;;;6.90;2.75;;;;;;;24.29;44.26;98908.84;4968881;28;20031;-96
2022/06/08 08:50:37;;;;;;;5.50;2.85;;;;;;;24.41;44.29;98917.69;4973634;28;20185;-94
2022/06/08 08:56:19;;;;;;;4.53;2.75;;;;;;;24.36;43.26;98898.75;4969018;28;20043;-95
2022/06/08 08:59:12;;;;;;;4.40;2.70;;;;;;;24.69;42.45;98905.47;4958783;28;20035;-95
2022/06/08 09:02:01;;;;;;;8.13;3.10;;;;;;;24.55;43.92;98903.34;4960265;28;20039;-95
2022/06/08 09:04:47;;;;;;;;;;;;;;;;;;;;;
2022/06/08 09:07:29;;;;;;;7.75;4.60;;;;;;;24.72;44.61;98895.69;4946701;29;20086;-95
2022/06/08 09:10:31;;;;;;;7.75;3.67;;;;;;;24.97;43.37;98909.75;4963095;28;20046;-95
2022/06/08 09:13:17;;;;;;;7.90;3.58;;;;;;;24.83;43.15;98874.56;4978674;28;20498;-93
2022/06/08 09:16:40;;;;;;;12.23;3.70;;;;;;;25.07;44.03;98903.56;4964966;28;20042;-96
2022/06/08 09:19:29;;;;;;;8.25;3.20;;;;;;;25.14;42.74;98897.31;4946305;28;20580;-93
2022/06/08 09:22:15;;;;;;;4.80;2.80;;;;;;;25.22;42.15;98900.97;4950518;28;20023;-94
2022/06/08 09:25:43;;;;;;;10.70;3.55;;;;;;;25.17;42.28;98880.03;4979552;28;20217;-95
2022/06/08 09:28:29;;;;;;;8.45;3.90;;;;;;;25.31;43.25;98879.41;4943844;28;20046;-93
2022/06/08 09:30:55;;;;;;;16.73;7.53;;;;;;;25.40;43.20;98893.66;4949778;28;20030;-93
2022/06/08 09:33:48;;;;;;;7.45;4.00;;;;;;;25.55;43.46;98887.09;4958513;28;20508;-93
2022/06/08 09:36:36;;;;;;;4.70;2.80;;;;;;;25.72;41.85;98869.13;4957751;28;20037;-94
2022/06/08 09:39:40;;;;;;;9.23;3.47;;;;;;;25.75;41.33;98892.38;4966628;28;20019;-96
2022/06/08 09:43:01;;;;;;;;;;;;;;;;;;;;;
2022/06/08 09:52:52;;;;;;;17.63;5.00;;;;;;;26.12;39.67;98866.66;4910945;29;20051;-94
2022/06/08 09:55:49;;;;;;;10.57;2.72;;;;;;;26.14;38.11;98887.16;4981263;28;20057;-94
2022/06/08 09:58:37;;;;;;;3.95;2.55;;;;;;;26.09;37.86;98876.50;4979083;28;20054;-91
2022/06/08 10:01:17;;;;;;;6.90;3.10;;;;;;;25.87;38.64;98863.69;4977658;28;20420;-92
2022/06/08 10:04:27;;;;;;;9.88;4.03;;;;;;;26.10;39.17;98874.50;4947039;28;20027;-92
2022/06/08 10:07:12;;;;;;;;;;;;;;;;;;;;;
2022/06/08 10:10:18;;;;;;;5.13;3.97;;;;;;;25.92;43.64;98871.63;4966925;28;20098;-92
2022/06/08 10:12:57;;;;;;;6.25;3.78;;;;;;;25.76;43.52;98858.13;4974682;28;20034;-93
2022/06/08 10:15:48;;;;;;;6.60;3.17;;;;;;;25.61;43.97;98884.78;4962042;28;20066;-91
2022/06/08 10:18:49;;;;;;;4.97;3.25;;;;;;;25.50;44.63;98870.91;4959255;29;20085;-93
2022/06/08 10:21:17;;;;;;;5.67;3.23;;;;;;;25.39;43.17;98851.53;4956333;28;20039;-91
2022/06/08 10:24:05;;;;;;;6.38;3.20;;;;;;;25.57;43.38;98879.25;4945364;29;20512;-93
2022/06/08 10:26:54;;;;;;;4.25;3.00;;;;;;;25.49;43.39;98874.06;4941801;29;20043;-94
2022/06/08 10:29:43;;;;;;;7.18;5.00;;;;;;;25.51;41.62;98867.00;4941775;29;20377;-92
2022/06/08 10:32:23;;;;;;;5.10;2.80;;;;;;;25.70;40.83;98865.16;4960868;28;20061;-92
2022/06/08 10:34:54;;;;;;;6.80;3.58;;;;;;;25.57;41.68;98842.63;4944728;29;20035;-93
2022/06/08 10:37:41;;;;;;;6.50;3.90;;;;;;;25.74;41.18;98843.91;4927359;29;20047;-95
2022/06/08 10:40:19;;;;;;;5.88;3.30;;;;;;;26.03;40.82;98850.44;4945512;28;20039;-92
2022/06/08 10:42:46;;;;;;;34.42;26.40;;;;;;;26.04;41.31;98832.69;4945734;28;20042;-94
2022/06/08 10:45:23;;;;;;;9.77;3.70;;;;;;;26.43;41.32;98859.69;4971236;28;20401;-90
2022/06/08 10:48:14;;;;;;;7.85;3.75;;;;;;;26.44;40.66;98852.19;4976334;28;20102;-93
2022/06/08 10:50:48;;;;;;;3.78;2.42;;;;;;;26.51;40.09;98835.69;4963950;28;20038;-94
2022/06/08 10:56:34;;;;;;;6.30;3.08;;;;;;;26.72;39.53;98846.03;4977949;28;20412;-94
2022/06/08 10:59:21;;;;;;;5.70;2.72;;;;;;;26.45;39.75;98818.69;4975511;28;20600;-94
2022/06/08 11:01:50;;;;;;;5.68;2.90;;;;;;;26.68;40.07;98839.72;4930415;29;20478;-91
2022/06/08 11:04:30;;;;;;;6.53;2.70;;;;;;;26.56;39.82;98844.38;4975188;28;20050;-92
2022/06/08 11:07:02;;;;;;;6.45;2.67;;;;;;;26.69;40.07;98833.00;4975913;28;20026;-93
2022/06/08 11:09:33;;;;;;;4.72;3.00;;;;;;;26.92;39.62;98833.47;4975273;28;20038;-94
2022/06/08 11:12:04;;;;;;;5.03;2.65;;;;;;;26.98;39.22;98825.59;4975823;28;20057;-92
2022/06/08 11:14:57;;;;;;;5.77;2.70;;;;;;;26.94;39.07;98809.00;4975564;28;20045;-95
2022/06/08 11:17:44;;;;;;;4.25;2.33;;;;;;;26.89;39.12;98814.09;4950480;28;20031;-96
2022/06/08 11:20:33;;;;;;;6.07;2.75;;;;;;;27.20;38.53;98829.13;4944640;28;20045;-92
2022/06/08 11:23:03;;;;;;;5.07;2.40;;;;;;;27.13;38.31;98807.81;4977355;28;20137;-94
2022/06/08 11:25:57;;;;;;;4.63;2.88;;;;;;;27.19;38.54;98811.78;4943384;28;20030;-94
2022/06/08 11:28:29;;;;;;;3.65;2.10;;;;;;;27.11;37.69;98821.25;4950403;28;20047;-95
2022/06/08 11:31:00;;;;;;;4.53;2.17;;;;;;;27.07;37.90;98805.84;4975148;28;20064;-91
2022/06/08 11:34:16;;;;;;;7.47;2.20;;;;;;;27.12;38.18;98816.50;4960819;28;20440;-96
2022/06/08 11:43:22;;;;;;;4.22;2.45;;;;;;;27.30;37.63;98792.44;5269970;23;20054;-96
2022/06/08 11:49:04;;;;;;;2.55;1.67;;;;;;;27.54;35.63;98765.19;4988753;28;20041;-96
2022/06/08 11:51:48;;;;;;;6.13;1.90;;;;;;;27.65;36.69;98768.72;5407964;23;20054;-96
2022/06/08 11:54:27;;;;;;;4.05;2.10;;;;;;;27.74;35.64;98776.59;4978241;28;20038;-95
2022/06/08 11:57:02;;;;;;;5.88;2.00;;;;;;;27.85;36.03;98773.78;5004905;28;20027;-96
2022/06/08 11:59:36;;;;;;;4.10;1.70;;;;;;;27.64;35.84;98758.03;4982059;28;20026;-95
2022/06/08 12:02:18;;;;;;;6.03;2.30;;;;;;;27.78;36.22;98777.38;4972118;28;20070;-95
2022/06/08 12:04:45;;;;;;;5.72;2.40;;;;;;;27.76;36.60;98775.00;4976460;28;20065;-95
2022/06/08 12:11:36;;;;;;;;;;;;;;;;;;;;;
2022/06/08 12:14:27;;;;;;;;;;;;;;;;;;;;;
2022/06/08 12:17:48;;;;;;;3.55;1.95;;;;;;;27.47;35.90;98765.97;5004922;28;20023;-96
2022/06/08 12:20:52;;;;;;;6.05;2.67;;;;;;;27.77;35.83;98782.13;4941495;28;20471;-95
2022/06/08 12:23:44;;;;;;;7.80;2.10;;;;;;;27.68;35.97;98750.53;4934900;29;20115;-95
2022/06/08 12:26:19;;;;;;;5.93;2.30;;;;;;;27.75;35.29;98756.06;4952327;29;20038;-96
2022/06/08 12:29:33;;;;;;;3.10;1.70;;;;;;;27.78;34.22;98749.69;4952339;29;20022;-95
2022/06/08 12:35:25;;;;;;;3.15;1.33;;;;;;;27.38;35.91;98760.06;4923618;29;20139;-95
2022/06/08 12:38:16;;;;;;;7.60;3.20;;;;;;;27.31;35.93;98766.41;4982491;28;20575;-95
2022/06/08 12:40:44;;;;;;;18.97;15.33;;;;;;;27.09;35.99;98762.03;4958561;28;20038;-92
2022/06/08 12:43:14;;;;;;;7.97;2.53;;;;;;;26.74;37.00;98764.34;4972523;28;20810;-92
2022/06/08 12:45:42;;;;;;;5.38;2.35;;;;;;;26.71;36.97;98764.34;4962847;28;20026;-92
2022/06/08 12:48:47;;;;;;;4.25;1.70;;;;;;;26.55;37.65;98779.28;4961325;28;20149;-92
2022/06/08 12:51:30;;;;;;;4.47;1.65;;;;;;;26.29;37.72;98755.53;4937118;29;20089;-94
2022/06/08 12:54:01;;;;;;;3.83;1.50;;;;;;;26.24;37.86;98750.41;4923206;28;20145;-93
2022/06/08 12:56:26;;;;;;;;;;;;;;;26.32;38.33;98785.13;4963133;28;20023;-94
2022/06/08 12:58:53;;;;;;;10.05;2.20;;;;;;;25.83;44.32;98778.16;4959908;28;19910;-95
2022/06/08 13:01:22;;;;;;;5.28;2.33;;;;;;;25.39;50.21;98790.88;4959012;28;20049;-92
2022/06/08 13:03:47;;;;;;;6.95;2.10;;;;;;;25.19;51.47;98773.78;4953205;28;20390;-92
2022/06/08 13:06:17;;;;;;;5.90;2.50;;;;;;;24.90;51.58;98772.75;4951541;28;20026;-94
2022/06/08 13:08:54;;;;;;;;;;;;;;;;;;;;;
2022/06/08 13:11:57;;;;;;;5.68;2.78;;;;;;;24.51;49.27;98762.13;4949202;28;20437;-94
2022/06/08 13:14:22;;;;;;;5.68;2.53;;;;;;;24.48;50.28;98745.53;4962969;28;20038;-91
2022/06/08 13:16:48;;;;;;;5.20;2.40;;;;;;;24.53;52.85;98756.22;4993054;28;20030;-90
2022/06/08 13:19:14;;;;;;;4.28;2.10;;;;;;;24.30;50.54;98757.16;4973827;28;20157;-91
2022/06/08 13:21:41;;;;;;;3.17;2.10;;;;;;;24.23;53.62;98776.31;4973911;28;20108;-91
2022/06/08 13:24:07;;;;;;;5.60;2.53;;;;;;;24.02;56.62;98751.31;4961509;28;20048;-93
2022/06/08 13:26:39;;;;;;;10.63;7.20;;;;;;;23.98;58.87;98754.00;4977717;28;20038;-91
2022/06/08 13:29:05;;;;;;;9.02;3.40;;;;;;;24.11;57.30;98771.84;4965772;28;20033;-94